sensor_id;sensor_type;location;lat;lon;timestamp;temperature;humidity
4699;DHT22;33708;49.466;11.176;2022-09-09T00:02:12;12.10;1.00
4699;DHT22;33708;49.466;11.176;2022-09-09T00:04:41;12.10;1.00
4699;DHT22;33708;49.466;11.176;2022-09-09T00:07:44;12.10;1.00
4699;DHT22;33708;49.466;11.176;2022-09-09T00:13:01;12.00;1.00
4699;DHT22;33708;49.466;11.176;2022-09-09T00:16:28;12.00;1.00
4699;DHT22;33708;49.466;11.176;2022-09-09T00:21:35;12.10;1.00
4699;DHT22;33708;49.466;11.176;2022-09-09T00:24:18;12.20;1.00
4699;DHT22;33708;49.466;11.176;2022-09-09T00:26:49;12.10;1.00
4699;DHT22;33708;49.466;11.176;2022-09-09T00:31:54;12.10;1.00
4699;DHT22;33708;49.466;11.176;2022-09-09T00:34:24;12.00;1.00
4699;DHT22;33708;49.466;11.176;2022-09-09T00:36:52;12.00;1.00
4699;DHT22;33708;49.466;11.176;2022-09-09T00:39:38;12.10;1.00
4699;DHT22;33708;49.466;11.176;2022-09-09T00:42:24;12.20;1.00
4699;DHT22;33708;49.466;11.176;2022-09-09T00:58:09;11.90;1.00
4699;DHT22;33708;49.466;11.176;2022-09-09T01:01:15;11.90;1.00
4699;DHT22;33708;49.466;11.176;2022-09-09T01:06:31;11.90;1.00
4699;DHT22;33708;49.466;11.176;2022-09-09T01:12:06;11.70;1.00
4699;DHT22;33708;49.466;11.176;2022-09-09T01:17:20;11.70;1.00
4699;DHT22;33708;49.466;11.176;2022-09-09T01:28:20;11.80;1.00
4699;DHT22;33708;49.466;11.176;2022-09-09T01:30:47;11.70;1.00
4699;DHT22;33708;49.466;11.176;2022-09-09T01:33:16;11.60;1.00
4699;DHT22;33708;49.466;11.176;2022-09-09T01:35:59;11.70;1.00
4699;DHT22;33708;49.466;11.176;2022-09-09T01:38:28;11.60;1.00
4699;DHT22;33708;49.466;11.176;2022-09-09T01:40:54;11.70;1.00
4699;DHT22;33708;49.466;11.176;2022-09-09T01:43:21;11.70;1.00
4699;DHT22;33708;49.466;11.176;2022-09-09T01:45:50;11.70;1.00
4699;DHT22;33708;49.466;11.176;2022-09-09T01:48:18;11.70;1.00
4699;DHT22;33708;49.466;11.176;2022-09-09T01:50:44;11.70;1.00
4699;DHT22;33708;49.466;11.176;2022-09-09T01:53:11;11.80;1.00
4699;DHT22;33708;49.466;11.176;2022-09-09T01:55:39;11.90;1.00
4699;DHT22;33708;49.466;11.176;2022-09-09T02:00:41;12.30;1.00
4699;DHT22;33708;49.466;11.176;2022-09-09T02:05:40;12.50;1.00
4699;DHT22;33708;49.466;11.176;2022-09-09T02:08:20;12.50;1.00
4699;DHT22;33708;49.466;11.176;2022-09-09T02:13:22;12.60;1.00
4699;DHT22;33708;49.466;11.176;2022-09-09T02:16:12;12.60;1.00
4699;DHT22;33708;49.466;11.176;2022-09-09T02:19:02;12.70;1.00
4699;DHT22;33708;49.466;11.176;2022-09-09T02:21:32;12.70;1.00
4699;DHT22;33708;49.466;11.176;2022-09-09T02:24:03;12.70;1.00
4699;DHT22;33708;49.466;11.176;2022-09-09T02:26:32;12.70;1.00
4699;DHT22;33708;49.466;11.176;2022-09-09T02:29:14;12.80;1.00
4699;DHT22;33708;49.466;11.176;2022-09-09T02:31:43;12.90;1.00
4699;DHT22;33708;49.466;11.176;2022-09-09T02:34:11;12.90;1.00
4699;DHT22;33708;49.466;11.176;2022-09-09T02:36:38;12.80;1.00
4699;DHT22;33708;49.466;11.176;2022-09-09T02:39:08;12.70;1.00
4699;DHT22;33708;49.466;11.176;2022-09-09T02:41:37;12.70;1.00
4699;DHT22;33708;49.466;11.176;2022-09-09T02:44:12;12.70;1.00
4699;DHT22;33708;49.466;11.176;2022-09-09T02:49:39;13.20;1.10
4699;DHT22;33708;49.466;11.176;2022-09-09T02:52:07;13.30;2.30
4699;DHT22;33708;49.466;11.176;2022-09-09T02:54:43;13.30;2.20
4699;DHT22;33708;49.466;11.176;2022-09-09T02:57:13;13.30;1.00
4699;DHT22;33708;49.466;11.176;2022-09-09T02:59:39;13.30;2.70
4699;DHT22;33708;49.466;11.176;2022-09-09T03:02:06;13.40;3.10
4699;DHT22;33708;49.466;11.176;2022-09-09T03:04:31;13.60;4.60
4699;DHT22;33708;49.466;11.176;2022-09-09T03:06:58;13.70;5.60
4699;DHT22;33708;49.466;11.176;2022-09-09T03:09:23;13.50;3.80
4699;DHT22;33708;49.466;11.176;2022-09-09T03:11:50;13.30;2.00
4699;DHT22;33708;49.466;11.176;2022-09-09T03:14:15;13.30;1.00
4699;DHT22;33708;49.466;11.176;2022-09-09T03:16:41;13.40;3.40
4699;DHT22;33708;49.466;11.176;2022-09-09T03:19:08;13.40;3.70
4699;DHT22;33708;49.466;11.176;2022-09-09T03:21:34;13.20;3.30
4699;DHT22;33708;49.466;11.176;2022-09-09T03:24:01;13.20;3.90
4699;DHT22;33708;49.466;11.176;2022-09-09T03:26:29;13.30;5.40
4699;DHT22;33708;49.466;11.176;2022-09-09T03:28:55;13.30;5.50
4699;DHT22;33708;49.466;11.176;2022-09-09T03:31:21;13.30;4.60
4699;DHT22;33708;49.466;11.176;2022-09-09T03:33:47;13.40;7.00
4699;DHT22;33708;49.466;11.176;2022-09-09T03:36:13;13.50;7.30
4699;DHT22;33708;49.466;11.176;2022-09-09T03:38:39;13.40;6.70
4699;DHT22;33708;49.466;11.176;2022-09-09T03:41:05;13.20;3.70
4699;DHT22;33708;49.466;11.176;2022-09-09T03:43:31;13.00;4.10
4699;DHT22;33708;49.466;11.176;2022-09-09T03:45:56;13.00;3.10
4699;DHT22;33708;49.466;11.176;2022-09-09T03:48:22;12.80;1.70
4699;DHT22;33708;49.466;11.176;2022-09-09T03:50:50;12.80;2.00
4699;DHT22;33708;49.466;11.176;2022-09-09T03:53:19;12.80;2.70
4699;DHT22;33708;49.466;11.176;2022-09-09T03:55:46;12.90;3.70
4699;DHT22;33708;49.466;11.176;2022-09-09T03:58:13;12.90;4.80
4699;DHT22;33708;49.466;11.176;2022-09-09T04:00:40;13.10;6.00
4699;DHT22;33708;49.466;11.176;2022-09-09T04:03:08;13.10;7.60
4699;DHT22;33708;49.466;11.176;2022-09-09T04:05:34;13.30;7.70
4699;DHT22;33708;49.466;11.176;2022-09-09T04:08:00;13.40;9.50
4699;DHT22;33708;49.466;11.176;2022-09-09T04:10:26;13.40;9.10
4699;DHT22;33708;49.466;11.176;2022-09-09T04:12:52;13.30;7.40
4699;DHT22;33708;49.466;11.176;2022-09-09T04:15:18;13.20;6.60
4699;DHT22;33708;49.466;11.176;2022-09-09T04:17:44;13.20;6.90
4699;DHT22;33708;49.466;11.176;2022-09-09T04:20:09;13.20;7.40
4699;DHT22;33708;49.466;11.176;2022-09-09T04:22:37;13.20;9.00
4699;DHT22;33708;49.466;11.176;2022-09-09T04:25:05;13.20;8.90
4699;DHT22;33708;49.466;11.176;2022-09-09T04:27:31;13.40;10.80
4699;DHT22;33708;49.466;11.176;2022-09-09T04:29:57;13.40;12.30
4699;DHT22;33708;49.466;11.176;2022-09-09T04:32:23;13.50;13.40
4699;DHT22;33708;49.466;11.176;2022-09-09T04:34:52;13.50;13.00
4699;DHT22;33708;49.466;11.176;2022-09-09T04:37:17;13.50;11.70
4699;DHT22;33708;49.466;11.176;2022-09-09T04:39:43;13.50;12.60
4699;DHT22;33708;49.466;11.176;2022-09-09T04:42:08;13.60;13.00
4699;DHT22;33708;49.466;11.176;2022-09-09T04:44:34;13.60;13.20
4699;DHT22;33708;49.466;11.176;2022-09-09T04:46:59;13.60;13.80
4699;DHT22;33708;49.466;11.176;2022-09-09T04:49:25;13.70;15.70
4699;DHT22;33708;49.466;11.176;2022-09-09T04:51:51;13.70;14.10
4699;DHT22;33708;49.466;11.176;2022-09-09T04:54:17;13.70;15.10
4699;DHT22;33708;49.466;11.176;2022-09-09T04:56:42;13.70;15.30
4699;DHT22;33708;49.466;11.176;2022-09-09T04:59:08;13.70;15.90
4699;DHT22;33708;49.466;11.176;2022-09-09T05:01:35;13.60;13.90
4699;DHT22;33708;49.466;11.176;2022-09-09T05:04:02;13.50;14.30
4699;DHT22;33708;49.466;11.176;2022-09-09T05:06:28;13.50;14.70
4699;DHT22;33708;49.466;11.176;2022-09-09T05:08:56;13.60;14.80
4699;DHT22;33708;49.466;11.176;2022-09-09T05:11:28;13.70;15.40
4699;DHT22;33708;49.466;11.176;2022-09-09T05:13:54;13.80;17.50
4699;DHT22;33708;49.466;11.176;2022-09-09T05:16:20;14.00;19.30
4699;DHT22;33708;49.466;11.176;2022-09-09T05:18:46;14.00;18.80
4699;DHT22;33708;49.466;11.176;2022-09-09T05:21:14;14.10;20.50
4699;DHT22;33708;49.466;11.176;2022-09-09T05:23:40;14.20;21.40
4699;DHT22;33708;49.466;11.176;2022-09-09T05:26:08;14.30;22.80
4699;DHT22;33708;49.466;11.176;2022-09-09T05:28:34;14.40;22.80
4699;DHT22;33708;49.466;11.176;2022-09-09T05:31:03;14.40;22.20
4699;DHT22;33708;49.466;11.176;2022-09-09T05:33:31;14.50;24.10
4699;DHT22;33708;49.466;11.176;2022-09-09T05:38:27;14.70;26.40
4699;DHT22;33708;49.466;11.176;2022-09-09T05:40:53;14.80;25.70
4699;DHT22;33708;49.466;11.176;2022-09-09T05:43:22;14.90;27.80
4699;DHT22;33708;49.466;11.176;2022-09-09T05:45:48;14.90;27.90
4699;DHT22;33708;49.466;11.176;2022-09-09T05:48:28;15.00;27.40
4699;DHT22;33708;49.466;11.176;2022-09-09T05:50:53;15.00;26.60
4699;DHT22;33708;49.466;11.176;2022-09-09T05:53:20;14.90;25.00
4699;DHT22;33708;49.466;11.176;2022-09-09T05:55:45;15.00;26.10
4699;DHT22;33708;49.466;11.176;2022-09-09T05:58:11;15.10;26.10
4699;DHT22;33708;49.466;11.176;2022-09-09T06:00:37;15.00;26.00
4699;DHT22;33708;49.466;11.176;2022-09-09T06:03:03;15.00;25.40
4699;DHT22;33708;49.466;11.176;2022-09-09T06:05:29;14.90;24.30
4699;DHT22;33708;49.466;11.176;2022-09-09T06:07:55;14.80;23.90
4699;DHT22;33708;49.466;11.176;2022-09-09T06:10:21;14.80;23.80
4699;DHT22;33708;49.466;11.176;2022-09-09T06:12:47;14.70;24.40
4699;DHT22;33708;49.466;11.176;2022-09-09T06:15:12;14.80;25.40
4699;DHT22;33708;49.466;11.176;2022-09-09T06:17:38;14.90;26.60
4699;DHT22;33708;49.466;11.176;2022-09-09T06:20:04;15.10;29.50
4699;DHT22;33708;49.466;11.176;2022-09-09T06:22:30;15.30;45.20
4699;DHT22;33708;49.466;11.176;2022-09-09T06:24:56;15.70;34.20
4699;DHT22;33708;49.466;11.176;2022-09-09T06:27:22;16.40;40.20
4699;DHT22;33708;49.466;11.176;2022-09-09T06:29:47;16.80;39.70
4699;DHT22;33708;49.466;11.176;2022-09-09T06:32:13;16.80;32.00
4699;DHT22;33708;49.466;11.176;2022-09-09T06:34:39;17.20;31.70
4699;DHT22;33708;49.466;11.176;2022-09-09T06:37:05;17.30;28.50
4699;DHT22;33708;49.466;11.176;2022-09-09T06:39:32;17.30;27.70
4699;DHT22;33708;49.466;11.176;2022-09-09T06:41:57;17.30;26.00
4699;DHT22;33708;49.466;11.176;2022-09-09T06:44:24;17.30;25.10
4699;DHT22;33708;49.466;11.176;2022-09-09T06:46:52;17.30;23.30
4699;DHT22;33708;49.466;11.176;2022-09-09T06:49:17;17.30;23.10
4699;DHT22;33708;49.466;11.176;2022-09-09T06:51:44;17.60;24.40
4699;DHT22;33708;49.466;11.176;2022-09-09T06:54:10;18.10;25.90
4699;DHT22;33708;49.466;11.176;2022-09-09T06:56:40;18.10;10.40
4699;DHT22;33708;49.466;11.176;2022-09-09T06:59:08;19.90;12.10
4699;DHT22;33708;49.466;11.176;2022-09-09T07:01:36;21.20;4.70
4699;DHT22;33708;49.466;11.176;2022-09-09T07:04:03;21.50;1.00
4699;DHT22;33708;49.466;11.176;2022-09-09T07:06:35;24.60;10.40
4699;DHT22;33708;49.466;11.176;2022-09-09T07:09:05;27.20;1.00
4699;DHT22;33708;49.466;11.176;2022-09-09T07:11:33;27.10;1.00
4699;DHT22;33708;49.466;11.176;2022-09-09T07:14:00;25.70;1.00
4699;DHT22;33708;49.466;11.176;2022-09-09T07:16:27;24.50;1.00
4699;DHT22;33708;49.466;11.176;2022-09-09T07:18:53;23.60;1.00
4699;DHT22;33708;49.466;11.176;2022-09-09T07:21:24;27.00;1.00
4699;DHT22;33708;49.466;11.176;2022-09-09T07:26:20;31.70;1.00
4699;DHT22;33708;49.466;11.176;2022-09-09T07:28:46;32.00;1.00
4699;DHT22;33708;49.466;11.176;2022-09-09T07:31:16;29.00;1.00
4699;DHT22;33708;49.466;11.176;2022-09-09T07:33:44;27.00;1.00
4699;DHT22;33708;49.466;11.176;2022-09-09T07:36:21;25.40;1.00
4699;DHT22;33708;49.466;11.176;2022-09-09T07:38:49;24.50;1.00
4699;DHT22;33708;49.466;11.176;2022-09-09T07:41:39;23.50;1.00
4699;DHT22;33708;49.466;11.176;2022-09-09T07:44:31;23.70;1.00
4699;DHT22;33708;49.466;11.176;2022-09-09T07:47:00;22.60;1.00
4699;DHT22;33708;49.466;11.176;2022-09-09T07:49:26;26.30;1.00
4699;DHT22;33708;49.466;11.176;2022-09-09T07:51:52;30.00;1.00
4699;DHT22;33708;49.466;11.176;2022-09-09T07:54:19;31.40;1.00
4699;DHT22;33708;49.466;11.176;2022-09-09T07:56:46;29.90;1.00
4699;DHT22;33708;49.466;11.176;2022-09-09T07:59:13;29.00;1.00
4699;DHT22;33708;49.466;11.176;2022-09-09T08:01:50;30.20;1.00
4699;DHT22;33708;49.466;11.176;2022-09-09T08:04:20;28.80;1.00
4699;DHT22;33708;49.466;11.176;2022-09-09T08:06:57;31.40;1.00
4699;DHT22;33708;49.466;11.176;2022-09-09T08:09:24;32.40;1.00
4699;DHT22;33708;49.466;11.176;2022-09-09T08:11:52;33.20;1.00
4699;DHT22;33708;49.466;11.176;2022-09-09T08:14:18;34.10;1.00
4699;DHT22;33708;49.466;11.176;2022-09-09T08:16:45;31.80;1.00
4699;DHT22;33708;49.466;11.176;2022-09-09T08:19:12;30.70;1.00
4699;DHT22;33708;49.466;11.176;2022-09-09T08:21:39;32.70;1.00
4699;DHT22;33708;49.466;11.176;2022-09-09T08:24:06;33.30;1.00
4699;DHT22;33708;49.466;11.176;2022-09-09T08:26:34;31.50;1.00
4699;DHT22;33708;49.466;11.176;2022-09-09T08:29:01;30.20;1.00
4699;DHT22;33708;49.466;11.176;2022-09-09T08:31:39;32.30;1.00
4699;DHT22;33708;49.466;11.176;2022-09-09T08:34:05;34.40;1.00
4699;DHT22;33708;49.466;11.176;2022-09-09T08:36:34;35.00;1.00
4699;DHT22;33708;49.466;11.176;2022-09-09T08:39:02;35.20;1.00
4699;DHT22;33708;49.466;11.176;2022-09-09T08:53:08;36.20;1.00
4699;DHT22;33708;49.466;11.176;2022-09-09T08:55:43;36.00;1.00
4699;DHT22;33708;49.466;11.176;2022-09-09T08:58:16;36.40;1.00
4699;DHT22;33708;49.466;11.176;2022-09-09T09:06:20;37.20;1.00
4699;DHT22;33708;49.466;11.176;2022-09-09T09:11:39;36.20;1.00
4699;DHT22;33708;49.466;11.176;2022-09-09T09:16:45;36.70;1.00
4699;DHT22;33708;49.466;11.176;2022-09-09T09:19:14;35.60;1.00
4699;DHT22;33708;49.466;11.176;2022-09-09T09:21:44;34.20;1.00
4699;DHT22;33708;49.466;11.176;2022-09-09T09:24:20;33.50;1.00
4699;DHT22;33708;49.466;11.176;2022-09-09T09:26:47;33.70;1.00
4699;DHT22;33708;49.466;11.176;2022-09-09T09:29:16;33.00;1.00
4699;DHT22;33708;49.466;11.176;2022-09-09T09:31:48;34.10;1.00
4699;DHT22;33708;49.466;11.176;2022-09-09T09:34:16;33.10;1.00
4699;DHT22;33708;49.466;11.176;2022-09-09T09:36:46;32.00;1.00
4699;DHT22;33708;49.466;11.176;2022-09-09T09:39:31;30.00;1.00
4699;DHT22;33708;49.466;11.176;2022-09-09T09:42:10;29.00;1.00
4699;DHT22;33708;49.466;11.176;2022-09-09T09:44:39;27.50;1.00
4699;DHT22;33708;49.466;11.176;2022-09-09T09:47:25;27.00;1.00
4699;DHT22;33708;49.466;11.176;2022-09-09T09:49:57;26.70;1.00
4699;DHT22;33708;49.466;11.176;2022-09-09T09:52:29;26.30;1.00
4699;DHT22;33708;49.466;11.176;2022-09-09T09:54:56;26.20;1.00
4699;DHT22;33708;49.466;11.176;2022-09-09T09:57:31;26.80;1.00
4699;DHT22;33708;49.466;11.176;2022-09-09T10:00:14;26.40;1.00
4699;DHT22;33708;49.466;11.176;2022-09-09T10:02:41;25.40;1.00
4699;DHT22;33708;49.466;11.176;2022-09-09T10:05:23;25.60;1.00
4699;DHT22;33708;49.466;11.176;2022-09-09T10:08:14;25.50;1.00
4699;DHT22;33708;49.466;11.176;2022-09-09T10:16:29;26.00;1.00
4699;DHT22;33708;49.466;11.176;2022-09-09T10:27:01;25.50;1.00
4699;DHT22;33708;49.466;11.176;2022-09-09T10:35:34;25.70;1.00
4699;DHT22;33708;49.466;11.176;2022-09-09T10:38:11;25.50;1.00
4699;DHT22;33708;49.466;11.176;2022-09-09T11:03:05;25.60;1.00
4699;DHT22;33708;49.466;11.176;2022-09-09T11:05:42;25.50;1.00
4699;DHT22;33708;49.466;11.176;2022-09-09T11:08:21;25.90;1.00
4699;DHT22;33708;49.466;11.176;2022-09-09T11:13:24;25.10;1.00
4699;DHT22;33708;49.466;11.176;2022-09-09T11:16:19;25.20;1.00
4699;DHT22;33708;49.466;11.176;2022-09-09T11:18:46;25.10;1.00
4699;DHT22;33708;49.466;11.176;2022-09-09T11:21:34;25.20;1.00
4699;DHT22;33708;49.466;11.176;2022-09-09T11:27:15;25.40;1.00
4699;DHT22;33708;49.466;11.176;2022-09-09T11:32:41;25.50;1.00
4699;DHT22;33708;49.466;11.176;2022-09-09T11:35:23;25.70;1.00
4699;DHT22;33708;49.466;11.176;2022-09-09T11:38:05;26.30;1.00
4699;DHT22;33708;49.466;11.176;2022-09-09T11:40:36;26.50;1.00
4699;DHT22;33708;49.466;11.176;2022-09-09T11:43:18;26.30;1.00
4699;DHT22;33708;49.466;11.176;2022-09-09T11:45:52;26.30;1.00
4699;DHT22;33708;49.466;11.176;2022-09-09T11:51:00;26.70;1.00
4699;DHT22;33708;49.466;11.176;2022-09-09T11:53:26;27.20;1.00
4699;DHT22;33708;49.466;11.176;2022-09-09T11:56:07;27.00;1.00
4699;DHT22;33708;49.466;11.176;2022-09-09T11:58:41;26.30;1.00
4699;DHT22;33708;49.466;11.176;2022-09-09T12:01:15;26.50;1.00
4699;DHT22;33708;49.466;11.176;2022-09-09T12:06:19;26.20;1.00
4699;DHT22;33708;49.466;11.176;2022-09-09T12:08:50;26.00;1.00
4699;DHT22;33708;49.466;11.176;2022-09-09T12:11:27;26.10;1.00
4699;DHT22;33708;49.466;11.176;2022-09-09T12:13:55;25.70;1.00
4699;DHT22;33708;49.466;11.176;2022-09-09T12:16:35;25.20;1.00
4699;DHT22;33708;49.466;11.176;2022-09-09T12:19:15;25.30;1.00
4699;DHT22;33708;49.466;11.176;2022-09-09T12:21:58;25.10;1.00
4699;DHT22;33708;49.466;11.176;2022-09-09T12:24:49;25.30;1.00
4699;DHT22;33708;49.466;11.176;2022-09-09T12:27:33;25.60;1.00
4699;DHT22;33708;49.466;11.176;2022-09-09T12:30:07;26.30;1.00
4699;DHT22;33708;49.466;11.176;2022-09-09T12:32:35;26.50;1.00
4699;DHT22;33708;49.466;11.176;2022-09-09T12:35:08;26.40;1.00
4699;DHT22;33708;49.466;11.176;2022-09-09T12:40:05;26.90;1.00
4699;DHT22;33708;49.466;11.176;2022-09-09T12:42:32;27.00;1.00
4699;DHT22;33708;49.466;11.176;2022-09-09T12:45:03;27.00;1.00
4699;DHT22;33708;49.466;11.176;2022-09-09T12:47:44;26.50;1.00
4699;DHT22;33708;49.466;11.176;2022-09-09T12:52:59;26.30;1.00
4699;DHT22;33708;49.466;11.176;2022-09-09T12:55:32;26.40;1.00
4699;DHT22;33708;49.466;11.176;2022-09-09T12:57:59;26.90;1.00
4699;DHT22;33708;49.466;11.176;2022-09-09T13:00:26;27.10;1.00
4699;DHT22;33708;49.466;11.176;2022-09-09T13:02:58;27.00;1.00
4699;DHT22;33708;49.466;11.176;2022-09-09T13:05:28;26.60;1.00
4699;DHT22;33708;49.466;11.176;2022-09-09T13:08:08;27.10;1.00
4699;DHT22;33708;49.466;11.176;2022-09-09T13:10:50;26.30;1.00
4699;DHT22;33708;49.466;11.176;2022-09-09T13:13:25;26.90;1.00
4699;DHT22;33708;49.466;11.176;2022-09-09T13:15:56;26.30;1.00
4699;DHT22;33708;49.466;11.176;2022-09-09T13:18:28;25.80;1.00
4699;DHT22;33708;49.466;11.176;2022-09-09T13:20:55;24.60;1.00
4699;DHT22;33708;49.466;11.176;2022-09-09T13:23:26;23.60;1.00
4699;DHT22;33708;49.466;11.176;2022-09-09T13:25:54;23.10;1.00
4699;DHT22;33708;49.466;11.176;2022-09-09T13:28:22;22.80;1.00
4699;DHT22;33708;49.466;11.176;2022-09-09T13:31:00;21.80;1.00
4699;DHT22;33708;49.466;11.176;2022-09-09T13:33:38;23.00;1.00
4699;DHT22;33708;49.466;11.176;2022-09-09T13:36:12;23.80;1.00
4699;DHT22;33708;49.466;11.176;2022-09-09T13:39:00;24.20;1.00
4699;DHT22;33708;49.466;11.176;2022-09-09T13:41:36;24.60;1.00
4699;DHT22;33708;49.466;11.176;2022-09-09T13:44:18;24.50;1.00
4699;DHT22;33708;49.466;11.176;2022-09-09T13:46:45;24.40;1.00
4699;DHT22;33708;49.466;11.176;2022-09-09T13:52:09;24.40;1.00
4699;DHT22;33708;49.466;11.176;2022-09-09T13:54:34;24.30;1.00
4699;DHT22;33708;49.466;11.176;2022-09-09T13:57:00;24.30;1.00
4699;DHT22;33708;49.466;11.176;2022-09-09T13:59:27;24.20;1.00
4699;DHT22;33708;49.466;11.176;2022-09-09T14:01:52;24.50;1.00
4699;DHT22;33708;49.466;11.176;2022-09-09T14:04:19;24.60;1.00
4699;DHT22;33708;49.466;11.176;2022-09-09T14:06:47;24.90;1.00
4699;DHT22;33708;49.466;11.176;2022-09-09T14:09:15;24.70;1.00
4699;DHT22;33708;49.466;11.176;2022-09-09T14:11:42;24.60;1.00
4699;DHT22;33708;49.466;11.176;2022-09-09T14:14:08;24.00;1.00
4699;DHT22;33708;49.466;11.176;2022-09-09T14:16:34;24.20;1.00
4699;DHT22;33708;49.466;11.176;2022-09-09T14:19:00;24.50;1.00
4699;DHT22;33708;49.466;11.176;2022-09-09T14:21:27;25.20;1.00
4699;DHT22;33708;49.466;11.176;2022-09-09T14:23:53;25.60;1.00
4699;DHT22;33708;49.466;11.176;2022-09-09T14:26:20;25.20;1.00
4699;DHT22;33708;49.466;11.176;2022-09-09T14:28:47;24.90;1.00
4699;DHT22;33708;49.466;11.176;2022-09-09T14:31:13;24.10;1.00
4699;DHT22;33708;49.466;11.176;2022-09-09T14:33:39;23.60;1.00
4699;DHT22;33708;49.466;11.176;2022-09-09T14:36:05;22.90;1.00
4699;DHT22;33708;49.466;11.176;2022-09-09T14:38:35;22.70;1.00
4699;DHT22;33708;49.466;11.176;2022-09-09T14:41:05;22.00;1.00
4699;DHT22;33708;49.466;11.176;2022-09-09T14:43:31;22.10;1.00
4699;DHT22;33708;49.466;11.176;2022-09-09T14:46:04;22.80;1.00
4699;DHT22;33708;49.466;11.176;2022-09-09T14:48:31;23.10;1.00
4699;DHT22;33708;49.466;11.176;2022-09-09T14:50:56;23.30;1.00
4699;DHT22;33708;49.466;11.176;2022-09-09T14:53:22;23.00;1.00
4699;DHT22;33708;49.466;11.176;2022-09-09T14:55:47;22.90;1.00
4699;DHT22;33708;49.466;11.176;2022-09-09T14:58:13;22.90;1.00
4699;DHT22;33708;49.466;11.176;2022-09-09T15:00:39;22.90;1.00
4699;DHT22;33708;49.466;11.176;2022-09-09T15:03:04;23.10;1.00
4699;DHT22;33708;49.466;11.176;2022-09-09T15:05:30;23.10;1.00
4699;DHT22;33708;49.466;11.176;2022-09-09T15:07:57;23.10;1.00
4699;DHT22;33708;49.466;11.176;2022-09-09T15:10:25;23.10;1.00
4699;DHT22;33708;49.466;11.176;2022-09-09T15:12:51;23.20;1.00
4699;DHT22;33708;49.466;11.176;2022-09-09T15:15:17;22.80;1.00
4699;DHT22;33708;49.466;11.176;2022-09-09T15:17:42;22.90;1.00
4699;DHT22;33708;49.466;11.176;2022-09-09T15:20:08;22.80;1.00
4699;DHT22;33708;49.466;11.176;2022-09-09T15:22:34;22.80;1.00
4699;DHT22;33708;49.466;11.176;2022-09-09T15:25:02;22.80;1.00
4699;DHT22;33708;49.466;11.176;2022-09-09T15:27:27;23.20;1.00
4699;DHT22;33708;49.466;11.176;2022-09-09T15:29:54;23.20;1.00
4699;DHT22;33708;49.466;11.176;2022-09-09T15:32:19;23.40;1.00
4699;DHT22;33708;49.466;11.176;2022-09-09T15:34:45;23.40;1.00
4699;DHT22;33708;49.466;11.176;2022-09-09T15:37:11;23.20;1.00
4699;DHT22;33708;49.466;11.176;2022-09-09T15:39:39;22.70;1.00
4699;DHT22;33708;49.466;11.176;2022-09-09T15:42:04;22.40;1.00
4699;DHT22;33708;49.466;11.176;2022-09-09T15:44:38;22.40;1.00
4699;DHT22;33708;49.466;11.176;2022-09-09T15:47:04;22.20;1.00
4699;DHT22;33708;49.466;11.176;2022-09-09T15:49:29;21.90;1.00
4699;DHT22;33708;49.466;11.176;2022-09-09T15:51:59;21.90;1.00
4699;DHT22;33708;49.466;11.176;2022-09-09T15:54:31;21.90;1.00
4699;DHT22;33708;49.466;11.176;2022-09-09T15:56:59;21.80;1.00
4699;DHT22;33708;49.466;11.176;2022-09-09T15:59:27;21.70;1.00
4699;DHT22;33708;49.466;11.176;2022-09-09T16:01:56;21.60;1.00
4699;DHT22;33708;49.466;11.176;2022-09-09T16:04:23;21.40;1.00
4699;DHT22;33708;49.466;11.176;2022-09-09T16:07:01;21.30;1.00
4699;DHT22;33708;49.466;11.176;2022-09-09T16:09:28;21.20;1.00
4699;DHT22;33708;49.466;11.176;2022-09-09T16:11:56;21.10;1.00
4699;DHT22;33708;49.466;11.176;2022-09-09T16:14:23;21.10;1.00
4699;DHT22;33708;49.466;11.176;2022-09-09T16:16:50;21.10;1.00
4699;DHT22;33708;49.466;11.176;2022-09-09T16:19:16;21.10;1.00
4699;DHT22;33708;49.466;11.176;2022-09-09T16:21:44;21.10;1.00
4699;DHT22;33708;49.466;11.176;2022-09-09T16:24:12;21.20;1.00
4699;DHT22;33708;49.466;11.176;2022-09-09T16:26:40;21.20;1.00
4699;DHT22;33708;49.466;11.176;2022-09-09T16:29:09;21.40;1.00
4699;DHT22;33708;49.466;11.176;2022-09-09T16:31:34;21.50;1.00
4699;DHT22;33708;49.466;11.176;2022-09-09T16:34:00;21.50;1.00
4699;DHT22;33708;49.466;11.176;2022-09-09T16:36:28;21.60;1.00
4699;DHT22;33708;49.466;11.176;2022-09-09T16:39:06;21.50;1.00
4699;DHT22;33708;49.466;11.176;2022-09-09T16:41:32;21.60;1.00
4699;DHT22;33708;49.466;11.176;2022-09-09T16:44:01;21.60;1.00
4699;DHT22;33708;49.466;11.176;2022-09-09T16:46:28;21.60;1.00
4699;DHT22;33708;49.466;11.176;2022-09-09T16:48:57;21.60;1.00
4699;DHT22;33708;49.466;11.176;2022-09-09T16:51:28;21.50;1.00
4699;DHT22;33708;49.466;11.176;2022-09-09T16:53:56;21.30;1.00
4699;DHT22;33708;49.466;11.176;2022-09-09T16:56:25;21.20;1.00
4699;DHT22;33708;49.466;11.176;2022-09-09T16:58:55;21.10;1.00
4699;DHT22;33708;49.466;11.176;2022-09-09T17:01:26;21.10;1.00
4699;DHT22;33708;49.466;11.176;2022-09-09T17:03:53;21.00;1.00
4699;DHT22;33708;49.466;11.176;2022-09-09T17:06:19;21.00;1.00
4699;DHT22;33708;49.466;11.176;2022-09-09T17:08:45;20.80;1.00
4699;DHT22;33708;49.466;11.176;2022-09-09T17:11:15;20.70;1.00
4699;DHT22;33708;49.466;11.176;2022-09-09T17:13:45;20.70;1.00
4699;DHT22;33708;49.466;11.176;2022-09-09T17:16:13;20.50;1.00
4699;DHT22;33708;49.466;11.176;2022-09-09T17:18:39;20.50;1.00
4699;DHT22;33708;49.466;11.176;2022-09-09T17:21:07;20.40;1.00
4699;DHT22;33708;49.466;11.176;2022-09-09T17:23:35;20.40;1.00
4699;DHT22;33708;49.466;11.176;2022-09-09T17:26:05;20.30;1.00
4699;DHT22;33708;49.466;11.176;2022-09-09T17:28:33;20.20;1.00
4699;DHT22;33708;49.466;11.176;2022-09-09T17:30:59;20.00;1.00
4699;DHT22;33708;49.466;11.176;2022-09-09T17:33:35;19.90;1.00
4699;DHT22;33708;49.466;11.176;2022-09-09T17:36:10;19.80;1.00
4699;DHT22;33708;49.466;11.176;2022-09-09T17:38:37;19.70;1.00
4699;DHT22;33708;49.466;11.176;2022-09-09T17:41:12;19.60;1.00
4699;DHT22;33708;49.466;11.176;2022-09-09T17:43:38;19.60;1.00
4699;DHT22;33708;49.466;11.176;2022-09-09T17:46:08;19.50;1.00
4699;DHT22;33708;49.466;11.176;2022-09-09T17:48:35;19.50;1.00
4699;DHT22;33708;49.466;11.176;2022-09-09T17:51:09;19.50;1.00
4699;DHT22;33708;49.466;11.176;2022-09-09T17:53:41;19.40;1.00
4699;DHT22;33708;49.466;11.176;2022-09-09T17:56:09;19.40;1.00
4699;DHT22;33708;49.466;11.176;2022-09-09T17:58:35;19.40;1.00
4699;DHT22;33708;49.466;11.176;2022-09-09T18:01:03;19.40;1.00
4699;DHT22;33708;49.466;11.176;2022-09-09T18:03:30;19.40;1.00
4699;DHT22;33708;49.466;11.176;2022-09-09T18:06:04;19.40;1.00
4699;DHT22;33708;49.466;11.176;2022-09-09T18:08:31;19.30;1.00
4699;DHT22;33708;49.466;11.176;2022-09-09T18:10:57;19.20;1.00
4699;DHT22;33708;49.466;11.176;2022-09-09T18:13:23;19.00;1.00
4699;DHT22;33708;49.466;11.176;2022-09-09T18:15:48;18.90;1.00
4699;DHT22;33708;49.466;11.176;2022-09-09T18:18:14;18.70;1.00
4699;DHT22;33708;49.466;11.176;2022-09-09T18:20:40;18.50;1.00